sensor_id;sensor_type;location;lat;lon;timestamp;P1;durP1;ratioP1;P2;durP2;ratioP2
7203;SDS011;3643;52.460;13.322;2022-10-16T03:50:53;2.13;;;2.03;;
7203;SDS011;3643;52.460;13.322;2022-10-16T03:53:21;2.30;;;2.10;;
7203;SDS011;3643;52.460;13.322;2022-10-16T03:55:50;2.00;;;1.90;;
7203;SDS011;3643;52.460;13.322;2022-10-16T03:58:18;2.23;;;2.00;;
7203;SDS011;3643;52.460;13.322;2022-10-16T04:00:48;2.20;;;2.00;;
7203;SDS011;3643;52.460;13.322;2022-10-16T04:03:16;2.13;;;1.90;;
7203;SDS011;3643;52.460;13.322;2022-10-16T04:05:46;2.00;;;1.90;;
7203;SDS011;3643;52.460;13.322;2022-10-16T04:08:16;1.83;;;1.73;;
7203;SDS011;3643;52.460;13.322;2022-10-16T04:10:45;2.13;;;2.03;;
7203;SDS011;3643;52.460;13.322;2022-10-16T04:13:15;5.60;;;4.00;;
7203;SDS011;3643;52.460;13.322;2022-10-16T04:15:45;2.50;;;2.30;;
7203;SDS011;3643;52.460;13.322;2022-10-16T04:18:14;2.30;;;2.20;;
7203;SDS011;3643;52.460;13.322;2022-10-16T04:20:42;2.47;;;1.97;;
7203;SDS011;3643;52.460;13.322;2022-10-16T04:23:10;2.77;;;2.13;;
7203;SDS011;3643;52.460;13.322;2022-10-16T04:25:40;2.00;;;1.90;;
7203;SDS011;3643;52.460;13.322;2022-10-16T04:28:08;2.93;;;1.90;;
7203;SDS011;3643;52.460;13.322;2022-10-16T04:30:37;2.30;;;2.20;;
7203;SDS011;3643;52.460;13.322;2022-10-16T04:33:07;2.30;;;2.10;;
7203;SDS011;3643;52.460;13.322;2022-10-16T04:35:36;1.90;;;1.80;;
7203;SDS011;3643;52.460;13.322;2022-10-16T04:38:06;2.10;;;1.90;;
7203;SDS011;3643;52.460;13.322;2022-10-16T04:40:36;2.10;;;1.93;;
7203;SDS011;3643;52.460;13.322;2022-10-16T04:43:06;2.57;;;2.37;;
7203;SDS011;3643;52.460;13.322;2022-10-16T04:45:35;3.93;;;2.00;;
7203;SDS011;3643;52.460;13.322;2022-10-16T04:48:03;2.37;;;2.17;;
7203;SDS011;3643;52.460;13.322;2022-10-16T04:50:32;2.30;;;2.10;;
7203;SDS011;3643;52.460;13.322;2022-10-16T04:53:00;2.07;;;1.97;;
7203;SDS011;3643;52.460;13.322;2022-10-16T04:55:29;2.40;;;2.20;;
7203;SDS011;3643;52.460;13.322;2022-10-16T04:57:59;3.10;;;2.17;;
7203;SDS011;3643;52.460;13.322;2022-10-16T05:00:29;3.53;;;2.50;;
7203;SDS011;3643;52.460;13.322;2022-10-16T05:02:57;3.47;;;2.50;;
7203;SDS011;3643;52.460;13.322;2022-10-16T05:05:28;2.87;;;2.57;;
7203;SDS011;3643;52.460;13.322;2022-10-16T05:07:57;2.43;;;2.23;;
7203;SDS011;3643;52.460;13.322;2022-10-16T05:10:25;2.70;;;2.50;;
7203;SDS011;3643;52.460;13.322;2022-10-16T05:12:54;3.33;;;2.23;;
7203;SDS011;3643;52.460;13.322;2022-10-16T05:15:24;3.60;;;2.37;;
7203;SDS011;3643;52.460;13.322;2022-10-16T05:17:56;2.60;;;2.40;;
7203;SDS011;3643;52.460;13.322;2022-10-16T05:20:24;2.87;;;2.67;;
7203;SDS011;3643;52.460;13.322;2022-10-16T05:22:53;3.20;;;2.63;;
7203;SDS011;3643;52.460;13.322;2022-10-16T05:25:22;3.20;;;2.90;;
7203;SDS011;3643;52.460;13.322;2022-10-16T05:27:51;2.90;;;2.60;;
7203;SDS011;3643;52.460;13.322;2022-10-16T05:30:20;3.50;;;2.80;;
7203;SDS011;3643;52.460;13.322;2022-10-16T05:32:49;4.10;;;2.70;;
7203;SDS011;3643;52.460;13.322;2022-10-16T05:35:19;3.20;;;2.70;;
7203;SDS011;3643;52.460;13.322;2022-10-16T05:37:49;4.00;;;2.70;;
7203;SDS011;3643;52.460;13.322;2022-10-16T05:40:18;3.20;;;2.90;;
7203;SDS011;3643;52.460;13.322;2022-10-16T05:42:46;3.23;;;2.63;;
7203;SDS011;3643;52.460;13.322;2022-10-16T05:45:15;2.87;;;2.67;;
7203;SDS011;3643;52.460;13.322;2022-10-16T05:47:44;3.70;;;2.60;;
7203;SDS011;3643;52.460;13.322;2022-10-16T05:50:12;3.17;;;2.43;;
7203;SDS011;3643;52.460;13.322;2022-10-16T05:52:43;3.50;;;3.20;;
7203;SDS011;3643;52.460;13.322;2022-10-16T05:55:11;3.47;;;2.70;;
7203;SDS011;3643;52.460;13.322;2022-10-16T05:57:41;3.17;;;2.87;;
7203;SDS011;3643;52.460;13.322;2022-10-16T06:00:10;3.77;;;3.20;;
7203;SDS011;3643;52.460;13.322;2022-10-16T06:02:39;3.40;;;2.60;;
7203;SDS011;3643;52.460;13.322;2022-10-16T06:05:11;3.27;;;2.97;;
7203;SDS011;3643;52.460;13.322;2022-10-16T06:07:39;4.40;;;2.97;;
7203;SDS011;3643;52.460;13.322;2022-10-16T06:10:10;5.57;;;3.23;;
7203;SDS011;3643;52.460;13.322;2022-10-16T06:12:39;4.93;;;3.37;;
7203;SDS011;3643;52.460;13.322;2022-10-16T06:15:08;4.80;;;3.37;;
7203;SDS011;3643;52.460;13.322;2022-10-16T06:17:36;3.60;;;3.20;;
7203;SDS011;3643;52.460;13.322;2022-10-16T06:20:06;4.00;;;3.40;;
7203;SDS011;3643;52.460;13.322;2022-10-16T06:22:34;3.60;;;3.30;;
7203;SDS011;3643;52.460;13.322;2022-10-16T06:25:05;6.60;;;3.30;;
7203;SDS011;3643;52.460;13.322;2022-10-16T06:27:38;4.20;;;2.67;;
7203;SDS011;3643;52.460;13.322;2022-10-16T06:30:08;2.90;;;2.70;;
7203;SDS011;3643;52.460;13.322;2022-10-16T06:32:40;2.50;;;2.30;;
7203;SDS011;3643;52.460;13.322;2022-10-16T06:35:08;4.03;;;2.60;;
7203;SDS011;3643;52.460;13.322;2022-10-16T06:37:37;3.33;;;2.90;;
7203;SDS011;3643;52.460;13.322;2022-10-16T06:40:05;4.37;;;2.67;;
7203;SDS011;3643;52.460;13.322;2022-10-16T06:42:34;2.90;;;2.63;;
7203;SDS011;3643;52.460;13.322;2022-10-16T06:45:04;2.73;;;2.30;;
7203;SDS011;3643;52.460;13.322;2022-10-16T06:47:34;2.97;;;2.20;;
7203;SDS011;3643;52.460;13.322;2022-10-16T06:50:02;2.03;;;1.93;;
7203;SDS011;3643;52.460;13.322;2022-10-16T06:52:33;2.50;;;2.30;;
7203;SDS011;3643;52.460;13.322;2022-10-16T06:55:02;4.57;;;3.07;;
7203;SDS011;3643;52.460;13.322;2022-10-16T06:57:32;3.30;;;2.33;;
7203;SDS011;3643;52.460;13.322;2022-10-16T07:00:02;5.43;;;2.50;;
7203;SDS011;3643;52.460;13.322;2022-10-16T07:02:32;3.93;;;2.27;;
7203;SDS011;3643;52.460;13.322;2022-10-16T07:05:00;2.33;;;2.10;;
7203;SDS011;3643;52.460;13.322;2022-10-16T07:07:29;2.70;;;2.50;;
7203;SDS011;3643;52.460;13.322;2022-10-16T07:09:58;4.07;;;2.80;;
7203;SDS011;3643;52.460;13.322;2022-10-16T07:12:26;3.20;;;1.90;;
7203;SDS011;3643;52.460;13.322;2022-10-16T07:14:55;2.10;;;1.90;;
7203;SDS011;3643;52.460;13.322;2022-10-16T07:17:24;2.77;;;1.90;;
7203;SDS011;3643;52.460;13.322;2022-10-16T07:19:55;5.70;;;1.50;;
7203;SDS011;3643;52.460;13.322;2022-10-16T07:22:24;2.27;;;2.07;;
7203;SDS011;3643;52.460;13.322;2022-10-16T07:24:53;4.10;;;1.80;;
7203;SDS011;3643;52.460;13.322;2022-10-16T07:27:21;1.97;;;1.87;;
7203;SDS011;3643;52.460;13.322;2022-10-16T07:29:50;1.97;;;1.70;;
7203;SDS011;3643;52.460;13.322;2022-10-16T07:32:18;2.00;;;1.80;;
7203;SDS011;3643;52.460;13.322;2022-10-16T07:34:48;2.10;;;1.70;;
7203;SDS011;3643;52.460;13.322;2022-10-16T07:37:17;3.57;;;2.00;;
7203;SDS011;3643;52.460;13.322;2022-10-16T07:39:45;3.20;;;1.70;;
7203;SDS011;3643;52.460;13.322;2022-10-16T07:42:14;1.70;;;1.60;;
7203;SDS011;3643;52.460;13.322;2022-10-16T07:44:42;3.43;;;1.80;;
7203;SDS011;3643;52.460;13.322;2022-10-16T07:47:12;3.23;;;1.67;;
7203;SDS011;3643;52.460;13.322;2022-10-16T07:49:41;3.20;;;2.00;;
7203;SDS011;3643;52.460;13.322;2022-10-16T07:52:11;1.70;;;1.60;;
7203;SDS011;3643;52.460;13.322;2022-10-16T07:54:39;2.83;;;1.80;;
7203;SDS011;3643;52.460;13.322;2022-10-16T07:57:10;3.50;;;1.90;;
7203;SDS011;3643;52.460;13.322;2022-10-16T07:59:45;3.03;;;2.20;;
7203;SDS011;3643;52.460;13.322;2022-10-16T08:02:14;3.93;;;1.90;;
7203;SDS011;3643;52.460;13.322;2022-10-16T08:04:42;2.20;;;1.80;;
7203;SDS011;3643;52.460;13.322;2022-10-16T08:07:12;3.70;;;1.70;;
7203;SDS011;3643;52.460;13.322;2022-10-16T08:09:41;2.10;;;1.70;;
7203;SDS011;3643;52.460;13.322;2022-10-16T08:12:10;1.80;;;1.70;;
7203;SDS011;3643;52.460;13.322;2022-10-16T08:14:38;2.03;;;1.60;;
7203;SDS011;3643;52.460;13.322;2022-10-16T08:17:13;2.17;;;1.60;;
7203;SDS011;3643;52.460;13.322;2022-10-16T08:19:43;2.10;;;1.50;;
7203;SDS011;3643;52.460;13.322;2022-10-16T08:22:15;1.50;;;1.40;;
7203;SDS011;3643;52.460;13.322;2022-10-16T08:24:43;2.10;;;1.30;;
7203;SDS011;3643;52.460;13.322;2022-10-16T08:27:12;1.63;;;1.53;;
7203;SDS011;3643;52.460;13.322;2022-10-16T08:29:41;2.13;;;1.60;;
7203;SDS011;3643;52.460;13.322;2022-10-16T08:32:09;1.87;;;1.50;;
7203;SDS011;3643;52.460;13.322;2022-10-16T08:34:37;1.40;;;1.30;;
7203;SDS011;3643;52.460;13.322;2022-10-16T08:37:07;3.23;;;1.40;;
7203;SDS011;3643;52.460;13.322;2022-10-16T08:39:38;2.47;;;1.30;;
7203;SDS011;3643;52.460;13.322;2022-10-16T08:42:13;1.40;;;1.30;;
7203;SDS011;3643;52.460;13.322;2022-10-16T08:45:01;1.47;;;1.37;;
7203;SDS011;3643;52.460;13.322;2022-10-16T08:47:45;1.23;;;1.20;;
7203;SDS011;3643;52.460;13.322;2022-10-16T08:50:23;1.70;;;1.60;;
7203;SDS011;3643;52.460;13.322;2022-10-16T08:52:54;1.50;;;1.40;;
7203;SDS011;3643;52.460;13.322;2022-10-16T08:55:30;3.73;;;1.60;;
7203;SDS011;3643;52.460;13.322;2022-10-16T08:58:09;1.37;;;1.27;;
7203;SDS011;3643;52.460;13.322;2022-10-16T09:00:41;1.77;;;1.60;;
7203;SDS011;3643;52.460;13.322;2022-10-16T09:03:17;2.80;;;1.70;;
7203;SDS011;3643;52.460;13.322;2022-10-16T09:06:01;2.20;;;1.60;;
7203;SDS011;3643;52.460;13.322;2022-10-16T09:08:51;2.67;;;1.40;;
7203;SDS011;3643;52.460;13.322;2022-10-16T09:11:33;3.13;;;2.60;;
7203;SDS011;3643;52.460;13.322;2022-10-16T09:14:10;7.37;;;5.20;;
7203;SDS011;3643;52.460;13.322;2022-10-16T09:16:52;9.93;;;5.93;;
7203;SDS011;3643;52.460;13.322;2022-10-16T09:19:27;4.60;;;2.70;;
7203;SDS011;3643;52.460;13.322;2022-10-16T09:22:09;6.53;;;4.53;;
7203;SDS011;3643;52.460;13.322;2022-10-16T09:24:41;3.10;;;2.50;;
7203;SDS011;3643;52.460;13.322;2022-10-16T09:27:11;1.53;;;1.40;;
7203;SDS011;3643;52.460;13.322;2022-10-16T09:29:42;2.53;;;1.60;;
7203;SDS011;3643;52.460;13.322;2022-10-16T09:32:12;4.33;;;3.93;;
7203;SDS011;3643;52.460;13.322;2022-10-16T09:34:47;1.50;;;1.27;;
7203;SDS011;3643;52.460;13.322;2022-10-16T09:37:18;2.97;;;1.20;;
7203;SDS011;3643;52.460;13.322;2022-10-16T09:39:50;2.50;;;2.10;;
7203;SDS011;3643;52.460;13.322;2022-10-16T09:42:21;3.33;;;1.70;;
7203;SDS011;3643;52.460;13.322;2022-10-16T09:44:56;2.40;;;1.60;;
7203;SDS011;3643;52.460;13.322;2022-10-16T09:47:27;2.03;;;1.47;;
7203;SDS011;3643;52.460;13.322;2022-10-16T09:49:58;1.30;;;1.20;;
7203;SDS011;3643;52.460;13.322;2022-10-16T09:52:30;2.00;;;1.87;;
7203;SDS011;3643;52.460;13.322;2022-10-16T09:55:00;1.37;;;1.27;;
7203;SDS011;3643;52.460;13.322;2022-10-16T09:57:47;1.30;;;1.20;;
7203;SDS011;3643;52.460;13.322;2022-10-16T10:00:17;1.20;;;1.10;;
7203;SDS011;3643;52.460;13.322;2022-10-16T10:02:47;1.10;;;1.10;;
7203;SDS011;3643;52.460;13.322;2022-10-16T10:05:18;2.50;;;1.43;;
7203;SDS011;3643;52.460;13.322;2022-10-16T10:07:53;3.23;;;1.30;;
7203;SDS011;3643;52.460;13.322;2022-10-16T10:10:25;1.90;;;1.70;;
7203;SDS011;3643;52.460;13.322;2022-10-16T10:12:56;1.93;;;1.37;;
7203;SDS011;3643;52.460;13.322;2022-10-16T10:15:25;1.23;;;1.23;;
7203;SDS011;3643;52.460;13.322;2022-10-16T10:17:58;1.20;;;1.10;;
7203;SDS011;3643;52.460;13.322;2022-10-16T10:20:29;3.47;;;1.30;;
7203;SDS011;3643;52.460;13.322;2022-10-16T10:23:00;3.00;;;1.10;;
7203;SDS011;3643;52.460;13.322;2022-10-16T10:25:34;1.47;;;1.20;;
7203;SDS011;3643;52.460;13.322;2022-10-16T10:28:26;2.87;;;1.93;;
7203;SDS011;3643;52.460;13.322;2022-10-16T10:31:19;2.90;;;1.40;;
7203;SDS011;3643;52.460;13.322;2022-10-16T10:33:55;4.10;;;1.30;;
7203;SDS011;3643;52.460;13.322;2022-10-16T10:36:28;3.03;;;1.43;;
7203;SDS011;3643;52.460;13.322;2022-10-16T10:39:00;1.10;;;1.10;;
7203;SDS011;3643;52.460;13.322;2022-10-16T10:41:39;3.27;;;1.10;;
7203;SDS011;3643;52.460;13.322;2022-10-16T10:44:46;3.60;;;1.30;;
7203;SDS011;3643;52.460;13.322;2022-10-16T10:47:35;5.63;;;1.30;;
7203;SDS011;3643;52.460;13.322;2022-10-16T10:50:18;1.50;;;1.00;;
7203;SDS011;3643;52.460;13.322;2022-10-16T10:52:53;1.33;;;1.10;;
7203;SDS011;3643;52.460;13.322;2022-10-16T10:55:35;1.47;;;1.30;;
7203;SDS011;3643;52.460;13.322;2022-10-16T11:01:08;2.10;;;1.00;;
7203;SDS011;3643;52.460;13.322;2022-10-16T11:03:45;1.33;;;1.20;;
7203;SDS011;3643;52.460;13.322;2022-10-16T11:06:30;4.47;;;1.30;;
7203;SDS011;3643;52.460;13.322;2022-10-16T11:09:02;1.00;;;1.00;;
7203;SDS011;3643;52.460;13.322;2022-10-16T11:11:40;1.13;;;0.97;;
7203;SDS011;3643;52.460;13.322;2022-10-16T11:14:13;1.17;;;1.07;;
7203;SDS011;3643;52.460;13.322;2022-10-16T11:16:49;1.80;;;1.30;;
7203;SDS011;3643;52.460;13.322;2022-10-16T11:19:26;1.10;;;0.97;;
7203;SDS011;3643;52.460;13.322;2022-10-16T11:22:03;2.93;;;1.00;;
7203;SDS011;3643;52.460;13.322;2022-10-16T11:24:41;2.03;;;1.10;;
7203;SDS011;3643;52.460;13.322;2022-10-16T11:27:15;0.90;;;0.90;;
7203;SDS011;3643;52.460;13.322;2022-10-16T11:29:52;1.67;;;1.00;;
7203;SDS011;3643;52.460;13.322;2022-10-16T11:32:27;4.50;;;1.20;;
7203;SDS011;3643;52.460;13.322;2022-10-16T11:35:02;0.90;;;0.90;;
7203;SDS011;3643;52.460;13.322;2022-10-16T11:37:40;1.27;;;1.10;;
7203;SDS011;3643;52.460;13.322;2022-10-16T11:40:16;1.00;;;1.00;;
7203;SDS011;3643;52.460;13.322;2022-10-16T11:42:51;1.80;;;0.90;;
7203;SDS011;3643;52.460;13.322;2022-10-16T11:45:27;1.20;;;1.10;;
7203;SDS011;3643;52.460;13.322;2022-10-16T11:48:04;2.43;;;1.20;;
7203;SDS011;3643;52.460;13.322;2022-10-16T11:50:42;1.57;;;1.00;;
7203;SDS011;3643;52.460;13.322;2022-10-16T11:53:20;1.57;;;0.80;;
7203;SDS011;3643;52.460;13.322;2022-10-16T11:56:06;0.97;;;0.97;;
7203;SDS011;3643;52.460;13.322;2022-10-16T11:58:36;1.03;;;0.90;;
7203;SDS011;3643;52.460;13.322;2022-10-16T12:01:16;1.37;;;1.00;;
7203;SDS011;3643;52.460;13.322;2022-10-16T12:03:59;1.07;;;0.97;;
7203;SDS011;3643;52.460;13.322;2022-10-16T12:06:34;1.80;;;0.90;;
7203;SDS011;3643;52.460;13.322;2022-10-16T12:09:09;0.70;;;0.70;;
7203;SDS011;3643;52.460;13.322;2022-10-16T12:11:46;1.97;;;0.80;;
7203;SDS011;3643;52.460;13.322;2022-10-16T12:14:20;5.83;;;1.00;;
7203;SDS011;3643;52.460;13.322;2022-10-16T12:17:26;0.83;;;0.83;;
7203;SDS011;3643;52.460;13.322;2022-10-16T12:20:18;2.23;;;1.03;;
7203;SDS011;3643;52.460;13.322;2022-10-16T12:22:50;3.23;;;0.87;;
7203;SDS011;3643;52.460;13.322;2022-10-16T12:25:23;1.00;;;1.00;;
7203;SDS011;3643;52.460;13.322;2022-10-16T12:27:55;1.10;;;0.97;;
7203;SDS011;3643;52.460;13.322;2022-10-16T12:30:32;1.57;;;0.90;;
7203;SDS011;3643;52.460;13.322;2022-10-16T12:33:03;4.07;;;1.10;;
7203;SDS011;3643;52.460;13.322;2022-10-16T12:35:35;0.93;;;0.90;;
7203;SDS011;3643;52.460;13.322;2022-10-16T12:38:16;4.60;;;1.37;;
7203;SDS011;3643;52.460;13.322;2022-10-16T12:40:47;2.53;;;1.03;;
7203;SDS011;3643;52.460;13.322;2022-10-16T12:43:35;1.10;;;1.00;;
7203;SDS011;3643;52.460;13.322;2022-10-16T12:46:20;0.83;;;0.83;;
7203;SDS011;3643;52.460;13.322;2022-10-16T12:48:51;0.80;;;0.80;;
7203;SDS011;3643;52.460;13.322;2022-10-16T12:51:35;1.23;;;0.80;;
7203;SDS011;3643;52.460;13.322;2022-10-16T12:54:05;0.87;;;0.80;;
7203;SDS011;3643;52.460;13.322;2022-10-16T12:56:43;1.50;;;0.70;;
7203;SDS011;3643;52.460;13.322;2022-10-16T12:59:21;1.73;;;0.90;;
7203;SDS011;3643;52.460;13.322;2022-10-16T13:02:03;2.77;;;0.97;;
7203;SDS011;3643;52.460;13.322;2022-10-16T13:05:08;0.70;;;0.70;;
7203;SDS011;3643;52.460;13.322;2022-10-16T13:07:53;1.73;;;1.10;;
7203;SDS011;3643;52.460;13.322;2022-10-16T13:10:33;1.20;;;1.10;;
7203;SDS011;3643;52.460;13.322;2022-10-16T13:13:13;1.13;;;1.00;;
7203;SDS011;3643;52.460;13.322;2022-10-16T13:16:01;0.90;;;0.90;;
7203;SDS011;3643;52.460;13.322;2022-10-16T13:18:43;0.60;;;0.60;;
7203;SDS011;3643;52.460;13.322;2022-10-16T13:21:23;0.63;;;0.63;;
7203;SDS011;3643;52.460;13.322;2022-10-16T13:24:02;0.77;;;0.77;;
7203;SDS011;3643;52.460;13.322;2022-10-16T13:26:42;1.70;;;0.90;;
7203;SDS011;3643;52.460;13.322;2022-10-16T13:29:17;1.60;;;1.10;;
7203;SDS011;3643;52.460;13.322;2022-10-16T13:31:47;1.50;;;0.90;;
7203;SDS011;3643;52.460;13.322;2022-10-16T13:34:17;1.37;;;1.00;;
7203;SDS011;3643;52.460;13.322;2022-10-16T13:36:49;1.30;;;1.10;;
7203;SDS011;3643;52.460;13.322;2022-10-16T13:39:25;1.77;;;1.57;;
7203;SDS011;3643;52.460;13.322;2022-10-16T13:41:58;3.83;;;3.43;;
7203;SDS011;3643;52.460;13.322;2022-10-16T13:44:36;1.23;;;1.10;;
7203;SDS011;3643;52.460;13.322;2022-10-16T13:47:15;1.50;;;1.40;;
7203;SDS011;3643;52.460;13.322;2022-10-16T13:49:45;6.10;;;1.50;;
7203;SDS011;3643;52.460;13.322;2022-10-16T13:52:17;1.10;;;1.10;;
7203;SDS011;3643;52.460;13.322;2022-10-16T13:54:49;1.80;;;0.90;;
7203;SDS011;3643;52.460;13.322;2022-10-16T13:57:18;1.73;;;1.00;;
7203;SDS011;3643;52.460;13.322;2022-10-16T13:59:53;0.70;;;0.70;;
7203;SDS011;3643;52.460;13.322;2022-10-16T14:02:23;1.17;;;1.17;;
7203;SDS011;3643;52.460;13.322;2022-10-16T14:04:54;1.20;;;1.10;;
7203;SDS011;3643;52.460;13.322;2022-10-16T14:07:25;0.80;;;0.80;;
7203;SDS011;3643;52.460;13.322;2022-10-16T14:09:58;2.97;;;1.00;;
7203;SDS011;3643;52.460;13.322;2022-10-16T14:12:31;0.80;;;0.80;;
7203;SDS011;3643;52.460;13.322;2022-10-16T14:15:00;5.17;;;1.20;;
7203;SDS011;3643;52.460;13.322;2022-10-16T14:17:29;1.63;;;1.10;;
7203;SDS011;3643;52.460;13.322;2022-10-16T14:20:03;2.30;;;0.93;;
7203;SDS011;3643;52.460;13.322;2022-10-16T14:22:34;0.90;;;0.90;;
7203;SDS011;3643;52.460;13.322;2022-10-16T14:25:20;1.50;;;1.40;;
7203;SDS011;3643;52.460;13.322;2022-10-16T14:30:53;1.63;;;1.47;;
7203;SDS011;3643;52.460;13.322;2022-10-16T14:33:23;1.60;;;1.50;;
7203;SDS011;3643;52.460;13.322;2022-10-16T14:36:03;13.47;;;10.50;;
7203;SDS011;3643;52.460;13.322;2022-10-16T14:38:33;5.50;;;4.53;;
7203;SDS011;3643;52.460;13.322;2022-10-16T14:41:03;5.60;;;1.20;;
7203;SDS011;3643;52.460;13.322;2022-10-16T14:43:34;1.40;;;1.30;;
7203;SDS011;3643;52.460;13.322;2022-10-16T14:46:05;1.47;;;1.10;;
7203;SDS011;3643;52.460;13.322;2022-10-16T14:48:40;3.33;;;0.90;;
7203;SDS011;3643;52.460;13.322;2022-10-16T14:51:11;1.27;;;1.03;;
7203;SDS011;3643;52.460;13.322;2022-10-16T14:53:49;1.03;;;1.03;;
7203;SDS011;3643;52.460;13.322;2022-10-16T14:56:27;2.50;;;1.00;;
7203;SDS011;3643;52.460;13.322;2022-10-16T14:58:58;1.90;;;1.10;;
7203;SDS011;3643;52.460;13.322;2022-10-16T15:01:28;1.70;;;0.67;;
7203;SDS011;3643;52.460;13.322;2022-10-16T15:03:56;0.80;;;0.80;;
7203;SDS011;3643;52.460;13.322;2022-10-16T15:06:26;1.53;;;1.10;;
7203;SDS011;3643;52.460;13.322;2022-10-16T15:08:54;1.87;;;1.37;;
7203;SDS011;3643;52.460;13.322;2022-10-16T15:11:22;4.23;;;2.93;;
7203;SDS011;3643;52.460;13.322;2022-10-16T15:13:52;2.40;;;2.17;;
7203;SDS011;3643;52.460;13.322;2022-10-16T15:16:21;4.93;;;4.17;;
7203;SDS011;3643;52.460;13.322;2022-10-16T15:18:49;2.33;;;1.97;;
7203;SDS011;3643;52.460;13.322;2022-10-16T15:21:21;2.27;;;1.53;;
7203;SDS011;3643;52.460;13.322;2022-10-16T15:23:52;1.50;;;1.40;;
7203;SDS011;3643;52.460;13.322;2022-10-16T15:26:23;1.70;;;1.30;;
7203;SDS011;3643;52.460;13.322;2022-10-16T15:28:53;0.80;;;0.80;;
7203;SDS011;3643;52.460;13.322;2022-10-16T15:31:23;1.63;;;1.30;;
7203;SDS011;3643;52.460;13.322;2022-10-16T15:33:51;1.80;;;1.70;;
7203;SDS011;3643;52.460;13.322;2022-10-16T15:36:25;1.10;;;1.10;;
7203;SDS011;3643;52.460;13.322;2022-10-16T15:38:54;9.37;;;7.67;;
7203;SDS011;3643;52.460;13.322;2022-10-16T15:41:23;4.80;;;3.73;;
7203;SDS011;3643;52.460;13.322;2022-10-16T15:43:54;3.33;;;3.00;;
7203;SDS011;3643;52.460;13.322;2022-10-16T15:46:24;2.13;;;1.93;;
7203;SDS011;3643;52.460;13.322;2022-10-16T15:48:55;1.80;;;1.60;;
7203;SDS011;3643;52.460;13.322;2022-10-16T15:51:25;2.87;;;1.50;;
7203;SDS011;3643;52.460;13.322;2022-10-16T15:53:56;10.63;;;7.93;;
7203;SDS011;3643;52.460;13.322;2022-10-16T15:56:25;7.20;;;5.50;;
7203;SDS011;3643;52.460;13.322;2022-10-16T15:58:56;12.23;;;8.63;;
7203;SDS011;3643;52.460;13.322;2022-10-16T16:01:25;10.33;;;7.17;;
7203;SDS011;3643;52.460;13.322;2022-10-16T16:03:56;7.97;;;5.60;;
7203;SDS011;3643;52.460;13.322;2022-10-16T16:06:24;6.50;;;4.83;;
7203;SDS011;3643;52.460;13.322;2022-10-16T16:08:53;6.40;;;4.90;;
7203;SDS011;3643;52.460;13.322;2022-10-16T16:11:21;6.80;;;5.03;;
7203;SDS011;3643;52.460;13.322;2022-10-16T16:13:50;54.43;;;40.17;;
7203;SDS011;3643;52.460;13.322;2022-10-16T16:16:22;37.47;;;26.87;;
7203;SDS011;3643;52.460;13.322;2022-10-16T16:18:53;26.43;;;17.90;;
7203;SDS011;3643;52.460;13.322;2022-10-16T16:21:21;19.00;;;12.10;;
7203;SDS011;3643;52.460;13.322;2022-10-16T16:23:51;11.87;;;8.23;;
7203;SDS011;3643;52.460;13.322;2022-10-16T16:26:22;9.43;;;7.70;;
7203;SDS011;3643;52.460;13.322;2022-10-16T16:28:52;9.30;;;6.67;;
7203;SDS011;3643;52.460;13.322;2022-10-16T16:31:24;8.03;;;5.00;;
7203;SDS011;3643;52.460;13.322;2022-10-16T16:33:54;8.43;;;5.57;;
7203;SDS011;3643;52.460;13.322;2022-10-16T16:36:23;6.23;;;4.47;;
7203;SDS011;3643;52.460;13.322;2022-10-16T16:38:52;3.77;;;3.37;;
7203;SDS011;3643;52.460;13.322;2022-10-16T16:41:21;5.80;;;3.40;;
7203;SDS011;3643;52.460;13.322;2022-10-16T16:43:52;4.43;;;3.10;;
7203;SDS011;3643;52.460;13.322;2022-10-16T16:46:21;4.03;;;3.03;;
7203;SDS011;3643;52.460;13.322;2022-10-16T16:48:51;5.77;;;2.47;;
7203;SDS011;3643;52.460;13.322;2022-10-16T16:51:21;23.10;;;15.40;;
7203;SDS011;3643;52.460;13.322;2022-10-16T16:53:53;67.47;;;46.37;;
7203;SDS011;3643;52.460;13.322;2022-10-16T16:56:22;66.10;;;46.30;;
7203;SDS011;3643;52.460;13.322;2022-10-16T16:58:52;38.30;;;26.57;;
7203;SDS011;3643;52.460;13.322;2022-10-16T17:01:22;21.57;;;15.57;;
7203;SDS011;3643;52.460;13.322;2022-10-16T17:03:55;14.77;;;11.30;;
7203;SDS011;3643;52.460;13.322;2022-10-16T17:06:25;18.00;;;13.33;;
7203;SDS011;3643;52.460;13.322;2022-10-16T17:08:56;36.53;;;26.53;;
7203;SDS011;3643;52.460;13.322;2022-10-16T17:11:25;78.10;;;52.20;;
7203;SDS011;3643;52.460;13.322;2022-10-16T17:13:55;43.67;;;29.57;;
7203;SDS011;3643;52.460;13.322;2022-10-16T17:16:26;26.40;;;17.83;;
7203;SDS011;3643;52.460;13.322;2022-10-16T17:18:59;20.63;;;14.23;;
7203;SDS011;3643;52.460;13.322;2022-10-16T17:21:29;14.57;;;10.10;;
7203;SDS011;3643;52.460;13.322;2022-10-16T17:23:58;10.83;;;7.57;;
7203;SDS011;3643;52.460;13.322;2022-10-16T17:26:27;9.23;;;7.10;;
7203;SDS011;3643;52.460;13.322;2022-10-16T17:28:57;8.80;;;6.53;;
7203;SDS011;3643;52.460;13.322;2022-10-16T17:31:28;9.80;;;5.27;;
7203;SDS011;3643;52.460;13.322;2022-10-16T17:33:59;4.70;;;4.03;;
7203;SDS011;3643;52.460;13.322;2022-10-16T17:36:30;5.47;;;3.70;;
7203;SDS011;3643;52.460;13.322;2022-10-16T17:39:00;6.53;;;3.53;;
7203;SDS011;3643;52.460;13.322;2022-10-16T17:41:30;4.17;;;3.13;;
7203;SDS011;3643;52.460;13.322;2022-10-16T17:43:59;3.23;;;2.63;;
7203;SDS011;3643;52.460;13.322;2022-10-16T17:46:28;8.00;;;3.87;;
7203;SDS011;3643;52.460;13.322;2022-10-16T17:49:04;39.87;;;31.13;;
7203;SDS011;3643;52.460;13.322;2022-10-16T17:51:33;14.30;;;10.07;;
7203;SDS011;3643;52.460;13.322;2022-10-16T17:54:02;9.13;;;6.47;;
7203;SDS011;3643;52.460;13.322;2022-10-16T17:56:31;8.63;;;5.13;;
7203;SDS011;3643;52.460;13.322;2022-10-16T17:59:00;5.33;;;4.53;;
7203;SDS011;3643;52.460;13.322;2022-10-16T18:01:32;7.03;;;4.73;;
7203;SDS011;3643;52.460;13.322;2022-10-16T18:04:04;6.37;;;5.10;;
7203;SDS011;3643;52.460;13.322;2022-10-16T18:06:35;10.20;;;7.70;;
7203;SDS011;3643;52.460;13.322;2022-10-16T18:09:05;20.77;;;14.27;;
7203;SDS011;3643;52.460;13.322;2022-10-16T18:11:34;39.03;;;25.87;;
7203;SDS011;3643;52.460;13.322;2022-10-16T18:14:04;26.63;;;16.20;;
7203;SDS011;3643;52.460;13.322;2022-10-16T18:16:33;26.57;;;17.30;;
7203;SDS011;3643;52.460;13.322;2022-10-16T18:19:06;14.03;;;9.20;;
7203;SDS011;3643;52.460;13.322;2022-10-16T18:21:36;13.20;;;9.90;;
7203;SDS011;3643;52.460;13.322;2022-10-16T18:24:04;12.00;;;8.50;;
7203;SDS011;3643;52.460;13.322;2022-10-16T18:26:33;9.07;;;6.83;;
7203;SDS011;3643;52.460;13.322;2022-10-16T18:29:03;8.97;;;6.20;;
7203;SDS011;3643;52.460;13.322;2022-10-16T18:31:32;7.53;;;5.40;;
7203;SDS011;3643;52.460;13.322;2022-10-16T18:34:08;6.70;;;5.10;;
7203;SDS011;3643;52.460;13.322;2022-10-16T18:36:37;8.07;;;4.87;;
7203;SDS011;3643;52.460;13.322;2022-10-16T18:39:09;6.50;;;4.53;;
7203;SDS011;3643;52.460;13.322;2022-10-16T18:41:39;7.47;;;4.67;;
7203;SDS011;3643;52.460;13.322;2022-10-16T18:44:10;7.20;;;4.80;;
7203;SDS011;3643;52.460;13.322;2022-10-16T18:46:39;7.10;;;5.63;;
7203;SDS011;3643;52.460;13.322;2022-10-16T18:49:09;8.27;;;5.33;;
7203;SDS011;3643;52.460;13.322;2022-10-16T18:51:38;7.27;;;5.07;;
7203;SDS011;3643;52.460;13.322;2022-10-16T18:54:11;6.80;;;4.30;;
7203;SDS011;3643;52.460;13.322;2022-10-16T18:56:40;7.17;;;4.10;;
7203;SDS011;3643;52.460;13.322;2022-10-16T18:59:09;4.70;;;4.17;;
7203;SDS011;3643;52.460;13.322;2022-10-16T19:01:37;7.27;;;4.77;;
7203;SDS011;3643;52.460;13.322;2022-10-16T19:04:06;5.47;;;4.50;;
7203;SDS011;3643;52.460;13.322;2022-10-16T19:06:38;6.40;;;4.60;;
7203;SDS011;3643;52.460;13.322;2022-10-16T19:09:09;7.00;;;4.93;;
7203;SDS011;3643;52.460;13.322;2022-10-16T19:11:38;7.10;;;4.83;;
7203;SDS011;3643;52.460;13.322;2022-10-16T19:14:07;12.60;;;9.10;;
7203;SDS011;3643;52.460;13.322;2022-10-16T19:16:36;8.30;;;6.47;;
7203;SDS011;3643;52.460;13.322;2022-10-16T19:19:09;8.93;;;6.10;;
7203;SDS011;3643;52.460;13.322;2022-10-16T19:21:43;10.03;;;6.43;;
7203;SDS011;3643;52.460;13.322;2022-10-16T19:24:13;10.07;;;6.50;;
7203;SDS011;3643;52.460;13.322;2022-10-16T19:26:44;10.00;;;6.57;;